MST,Max TemperatureF,Mean TemperatureF,Min TemperatureF,Max Dew PointF,MeanDew PointF,Min DewpointF,Max Humidity, Mean Humidity, Min Humidity, Max Sea Level PressureIn, Mean Sea Level PressureIn, Min Sea Level PressureIn, Max VisibilityMiles, Mean VisibilityMiles, Min VisibilityMiles, Max Wind SpeedMPH, Mean Wind SpeedMPH, Max Gust SpeedMPH,PrecipitationIn, CloudCover, Events, WindDirDegrees
2012-12-1,60,48,35,27,25,22,59,43,27,30.10,30.03,29.95,10,10,10,10,5,14,0.00,2,,122
2012-12-2,61,46,30,31,24,18,69,44,19,30.12,29.96,29.82,10,10,9,21,8,29,0.00,1,,161
2012-12-3,55,42,28,36,29,22,78,58,38,30.32,30.07,29.82,10,10,7,21,8,28,T,3,,201
2012-12-4,51,36,21,23,17,12,81,51,21,30.51,30.40,30.31,10,10,6,12,6,13,0.00,1,,145
2012-12-5,53,40,26,23,19,15,63,46,28,30.34,30.17,30.03,10,10,10,10,4,15,0.00,3,,150
2012-12-6,51,44,37,36,32,23,79,62,45,30.01,29.95,29.88,10,10,10,9,3,10,T,6,Rain,141
2012-12-7,52,42,31,33,28,22,92,61,30,29.99,29.91,29.85,10,10,5,12,5,13,0.00,3,,122
2012-12-8,53,39,24,24,20,14,81,52,22,29.91,29.83,29.70,10,10,9,22,7,29,0.00,3,,329
2012-12-9,33,22,11,27,16,1,100,69,37,30.39,30.06,29.86,10,6,1,26,10,31,0.03,5,Snow,296
2012-12-10,25,15,5,15,6,-1,84,62,40,30.37,30.28,30.17,10,10,10,12,3,14,0.00,5,,156
2012-12-11,39,26,12,18,13,9,92,62,32,30.27,30.17,30.06,10,10,9,10,4,12,T,2,,161
2012-12-12,48,31,14,22,16,11,80,57,34,30.10,30.02,29.94,10,10,10,21,6,24,0.00,0,,130
2012-12-13,51,39,27,18,16,12,63,44,24,30.04,29.93,29.82,10,10,10,25,12,32,0.00,0,,108
2012-12-14,45,37,28,32,24,15,89,63,37,29.80,29.66,29.52,10,10,10,29,7,35,T,5,Rain,116
2012-12-15,41,36,31,30,26,21,92,69,46,29.85,29.80,29.74,10,9,2,15,3,20,T,7,Snow,304
2012-12-16,39,33,26,30,20,14,92,66,40,30.01,29.89,29.80,10,10,7,20,6,24,T,6,Snow,160
2012-12-17,44,34,23,22,19,16,75,57,39,30.02,29.94,29.85,10,10,10,17,5,24,0.00,3,,121
2012-12-18,45,35,24,24,21,20,75,57,39,29.88,29.69,29.41,10,10,10,23,9,32,0.00,2,,182
2012-12-19,43,23,3,25,16,-4,100,75,49,30.57,29.78,29.36,10,4,0,36,15,47,0.20,6,Fog-Snow,325
2012-12-20,24,10,-5,4,-2,-10,95,68,41,30.83,30.70,30.60,10,10,10,14,5,16,0.00,0,,152
2012-12-21,26,12,-2,11,3,-5,91,73,54,30.68,30.54,30.41,10,10,9,10,5,12,0.00,0,,146
2012-12-22,30,15,-1,15,8,-2,95,73,50,30.51,30.36,30.21,10,9,6,9,3,10,0.00,0,,152
2012-12-23,33,24,14,20,15,11,88,69,49,30.29,30.17,30.02,10,9,6,10,3,13,0.00,2,,67
2012-12-24,35,30,24,31,26,20,100,83,66,29.99,29.78,29.67,10,6,1,16,6,21,0.03,7,Snow,323
2012-12-25,29,20,10,21,17,8,92,78,63,30.22,30.10,29.87,10,7,2,15,5,21,0.01,5,Snow,110
2012-12-26,35,24,12,21,17,8,96,72,47,30.14,29.88,29.70,10,10,7,22,4,28,0.00,6,,177
2012-12-27,32,25,18,27,23,16,100,86,72,29.96,29.81,29.72,10,4,1,10,3,13,0.05,8,Snow,355
2012-12-28,26,14,2,22,12,-2,96,73,50,30.44,30.18,29.92,10,8,2,14,5,15,T,3,Snow,105
2012-12-29,20,10,-1,9,2,-6,91,74,56,30.53,30.39,30.25,10,10,10,12,5,25,0.00,0,,147
2012-12-30,25,13,1,17,10,-2,91,76,60,30.26,30.10,29.91,10,10,8,10,4,12,T,5,Snow,125
2012-12-31,24,15,6,19,16,7,92,83,74,30.23,29.98,29.84,10,4,0,6,2,6,0.18,8,Fog-Snow,49